createdAt,value
2022-08-28T00:02:17.546Z,102029.91
2022-08-28T00:04:45.937Z,102012.06
2022-08-28T00:07:14.378Z,102031.66
2022-08-28T00:09:44.023Z,102012.97
2022-08-28T00:12:13.096Z,102015.69
2022-08-28T00:14:41.467Z,102009.44
2022-08-28T00:17:09.776Z,102028.75
2022-08-28T00:19:38.927Z,102018.09
2022-08-28T00:22:07.559Z,102023.38
2022-08-28T00:24:36.895Z,102021.50
2022-08-28T00:27:24.429Z,102034.88
2022-08-28T00:29:52.871Z,102022.38
2022-08-28T00:32:22.364Z,102040.19
2022-08-28T00:34:50.896Z,102045.31
2022-08-28T00:37:19.251Z,102034.59
2022-08-28T00:39:53.179Z,102040.88
2022-08-28T00:42:23.289Z,102042.66
2022-08-28T00:44:51.980Z,102024.09
2022-08-28T00:47:20.525Z,102032.03
2022-08-28T00:49:53.868Z,102023.91
2022-08-28T00:52:24.263Z,102043.34
2022-08-28T00:54:59.403Z,102033.44
2022-08-28T00:57:35.145Z,102031.72
2022-08-28T01:00:07.805Z,102037.06
2022-08-28T01:02:36.159Z,102045.94
2022-08-28T01:05:07.584Z,102038.72
2022-08-28T01:07:36.206Z,102041.47
2022-08-28T01:10:11.273Z,102032.41
2022-08-28T01:12:41.731Z,102036.84
2022-08-28T01:15:14.891Z,102043.13
2022-08-28T01:17:49.185Z,102054.66
2022-08-28T01:20:22.295Z,102037.63
2022-08-28T01:23:00.238Z,102032.34
2022-08-28T01:25:34.631Z,102044.78
2022-08-28T01:28:07.204Z,102037.03
2022-08-28T01:30:36.363Z,102036.03
2022-08-28T01:33:04.803Z,102048.28
2022-08-28T01:35:36.620Z,102047.31
2022-08-28T01:38:05.550Z,102049.09
2022-08-28T01:40:40.806Z,102053.41
2022-08-28T01:43:11.843Z,102023.38
2022-08-28T01:45:40.972Z,102046.41
2022-08-28T01:48:10.079Z,102053.53
2022-08-28T01:50:39.477Z,102051.47
2022-08-28T01:53:10.008Z,102063.88
2022-08-28T01:55:43.672Z,102061.44
2022-08-28T01:58:13.369Z,102063.44
2022-08-28T02:00:42.189Z,102066.63
2022-08-28T02:03:12.825Z,102066.63
2022-08-28T02:05:41.700Z,102061.34
2022-08-28T02:08:10.486Z,102039.22
2022-08-28T02:10:43.625Z,102053.34
2022-08-28T02:13:13.566Z,102062.03
2022-08-28T02:15:44.419Z,102042.53
2022-08-28T02:18:14.422Z,102064.91
2022-08-28T02:20:43.319Z,102072.81
2022-08-28T02:23:12.071Z,102056.75
2022-08-28T02:25:42.169Z,102051.41
2022-08-28T02:28:11.141Z,102071.69
2022-08-28T02:30:41.022Z,102071.66
2022-08-28T02:33:09.396Z,102074.31
2022-08-28T02:35:40.288Z,102077.91
2022-08-28T02:38:09.248Z,102073.38
2022-08-28T02:40:38.115Z,102075.94
2022-08-28T02:43:08.062Z,102069.84
2022-08-28T02:45:36.734Z,102082.00
2022-08-28T02:48:05.725Z,102079.44
2022-08-28T02:50:43.926Z,102051.91
2022-08-28T02:53:13.330Z,102063.97
2022-08-28T02:55:42.080Z,102089.47
2022-08-28T02:58:11.810Z,102046.25
2022-08-28T03:00:41.400Z,102053.31
2022-08-28T03:03:09.709Z,102079.91
2022-08-28T03:05:38.158Z,102086.75
2022-08-28T03:08:06.704Z,102082.47
2022-08-28T03:10:35.234Z,102079.72
2022-08-28T03:13:03.583Z,102082.44
2022-08-28T03:15:33.317Z,102083.22
2022-08-28T03:18:01.668Z,102076.25
2022-08-28T03:20:36.579Z,102086.84
2022-08-28T03:23:22.887Z,102062.75
2022-08-28T03:25:51.356Z,102088.31
2022-08-28T03:28:19.969Z,102074.06
2022-08-28T03:30:50.725Z,102078.47
2022-08-28T03:33:20.889Z,102079.22
2022-08-28T03:35:49.548Z,102090.81
2022-08-28T03:38:18.241Z,102109.44
2022-08-28T03:40:48.368Z,102095.16
2022-08-28T03:43:20.399Z,102090.50
2022-08-28T03:46:02.352Z,102086.03
2022-08-28T03:48:33.476Z,102084.44
2022-08-28T03:51:02.690Z,102116.16
2022-08-28T03:53:31.521Z,102088.63
2022-08-28T03:56:00.127Z,102102.03
2022-08-28T03:58:28.866Z,102112.81
2022-08-28T04:00:58.544Z,102110.97
2022-08-28T04:03:27.050Z,102114.50
2022-08-28T04:05:55.346Z,102110.16
2022-08-28T04:08:23.987Z,102099.19
2022-08-28T04:10:53.976Z,102101.78
2022-08-28T04:13:23.302Z,102108.22
2022-08-28T04:16:02.622Z,102115.44
2022-08-28T04:18:35.600Z,102110.06
2022-08-28T04:21:07.985Z,102108.03
2022-08-28T04:23:38.139Z,102123.06
2022-08-28T04:26:07.179Z,102105.38
2022-08-28T04:28:36.544Z,102107.19
2022-08-28T04:31:07.984Z,102115.81
2022-08-28T04:33:37.410Z,102127.50
2022-08-28T04:36:09.255Z,102129.25
2022-08-28T04:38:41.660Z,102140.72
2022-08-28T04:41:15.147Z,102121.16
2022-08-28T04:43:44.000Z,102118.56
2022-08-28T04:46:16.057Z,102104.28
2022-08-28T04:48:44.799Z,102122.75
2022-08-28T04:51:15.260Z,102116.81
2022-08-28T04:53:44.693Z,102126.44
2022-08-28T04:56:15.327Z,102117.06
2022-08-28T04:58:45.538Z,102139.06
2022-08-28T05:01:19.695Z,102125.50
2022-08-28T05:03:49.295Z,102148.59
2022-08-28T05:06:18.195Z,102152.19
2022-08-28T05:08:46.464Z,102125.75
2022-08-28T05:11:32.840Z,102130.06
2022-08-28T05:14:05.239Z,102151.47
2022-08-28T05:16:40.906Z,102136.84
2022-08-28T05:19:09.364Z,102161.16
2022-08-28T05:21:37.740Z,102147.75
2022-08-28T05:24:07.442Z,102134.31
2022-08-28T05:26:38.904Z,102153.69
2022-08-28T05:29:10.390Z,102169.88
2022-08-28T05:31:42.197Z,102177.97
2022-08-28T05:34:10.745Z,102182.47
2022-08-28T05:36:40.359Z,102166.59
2022-08-28T05:39:11.792Z,102187.94
2022-08-28T05:41:43.678Z,102146.41
2022-08-28T05:44:14.875Z,102166.91
2022-08-28T05:46:48.331Z,102180.38
2022-08-28T05:49:19.383Z,102176.88
2022-08-28T05:51:48.775Z,102159.16
2022-08-28T05:54:18.508Z,102186.69
2022-08-28T05:56:47.755Z,102173.22
2022-08-28T05:59:16.894Z,102186.69
2022-08-28T06:01:49.202Z,102168.75
2022-08-28T06:04:22.980Z,102146.06
2022-08-28T06:06:51.820Z,102190.41
2022-08-28T06:09:28.025Z,102176.41
2022-08-28T06:11:58.726Z,102164.94
2022-08-28T06:14:27.993Z,102178.38
2022-08-28T06:16:58.506Z,102186.31
2022-08-28T06:19:30.055Z,102181.13
2022-08-28T06:22:07.167Z,102187.44
2022-08-28T06:24:36.741Z,102180.47
2022-08-28T06:27:05.594Z,102148.63
2022-08-28T06:29:34.040Z,102196.50
2022-08-28T06:32:05.577Z,102185.88
2022-08-28T06:34:34.201Z,102174.50
2022-08-28T06:37:02.511Z,102179.91
2022-08-28T06:39:30.933Z,102155.94
2022-08-28T06:41:59.215Z,102185.28
2022-08-28T06:44:27.956Z,102180.03
2022-08-28T06:46:57.229Z,102196.06
2022-08-28T06:49:26.924Z,102204.72
2022-08-28T06:51:56.221Z,102199.63
2022-08-28T06:54:24.826Z,102198.91
2022-08-28T06:56:54.213Z,102198.13
2022-08-28T06:59:22.633Z,102187.50
2022-08-28T07:01:53.587Z,102185.00
2022-08-28T07:04:21.961Z,102193.91
2022-08-28T07:06:54.620Z,102204.78
2022-08-28T07:09:24.492Z,102192.38
2022-08-28T07:11:53.611Z,102184.41
2022-08-28T07:14:21.991Z,102209.41
2022-08-28T07:16:51.934Z,102205.94
2022-08-28T07:19:20.377Z,102201.47
2022-08-28T07:21:49.014Z,102196.19
2022-08-28T07:24:19.260Z,102209.66
2022-08-28T07:26:48.930Z,102204.34
2022-08-28T07:29:18.406Z,102181.47
2022-08-28T07:31:51.842Z,102203.66
2022-08-28T07:34:26.810Z,102186.81
2022-08-28T07:36:58.160Z,102183.47
2022-08-28T07:39:27.954Z,102201.19
2022-08-28T07:41:56.287Z,102194.03
2022-08-28T07:44:42.454Z,102188.84
2022-08-28T07:47:11.835Z,102206.66
2022-08-28T07:49:41.511Z,102186.31
2022-08-28T07:52:11.957Z,102212.00
2022-08-28T07:54:41.696Z,102181.06
2022-08-28T07:57:11.289Z,102191.72
2022-08-28T07:59:41.081Z,102221.81
2022-08-28T08:02:12.342Z,102204.16
2022-08-28T08:04:41.171Z,102174.16
2022-08-28T08:07:09.966Z,102214.06
2022-08-28T08:09:43.118Z,102217.78
2022-08-28T08:12:13.732Z,102204.50
2022-08-28T08:14:44.004Z,102205.50
2022-08-28T08:17:13.196Z,102211.72
2022-08-28T08:19:41.802Z,102216.78
2022-08-28T08:22:10.051Z,102206.69
2022-08-28T08:24:38.413Z,102208.47
2022-08-28T08:27:08.017Z,102204.50
2022-08-28T08:29:38.692Z,102202.75
2022-08-28T08:32:09.716Z,102198.22
2022-08-28T08:34:41.399Z,102202.53
2022-08-28T08:37:11.152Z,102197.63
2022-08-28T08:39:40.387Z,102192.66
2022-08-28T08:42:22.367Z,102198.31
2022-08-28T08:44:52.261Z,102171.44
2022-08-28T08:47:26.429Z,102183.00
2022-08-28T08:49:58.671Z,102180.66
2022-08-28T08:52:38.669Z,102192.88
2022-08-28T08:55:20.155Z,102184.16
2022-08-28T08:57:58.638Z,102194.69
2022-08-28T09:00:27.415Z,102194.34
2022-08-28T09:03:05.852Z,102195.06
2022-08-28T09:05:50.351Z,102190.56
2022-08-28T09:08:36.263Z,102201.16
2022-08-28T09:11:16.486Z,102206.44
2022-08-28T09:13:56.276Z,102186.50
2022-08-28T09:16:32.562Z,102188.34
2022-08-28T09:19:02.244Z,102207.50
2022-08-28T09:21:35.185Z,102183.69
2022-08-28T09:24:11.069Z,102191.81
2022-08-28T09:26:41.515Z,102199.88
2022-08-28T09:29:21.004Z,102196.22
2022-08-28T09:31:50.295Z,102184.66
2022-08-28T09:34:29.885Z,102145.44
2022-08-28T09:36:59.622Z,102188.44
2022-08-28T09:39:31.163Z,102183.75
2022-08-28T09:42:34.847Z,102175.06
2022-08-28T09:45:16.367Z,102193.50
2022-08-28T09:47:50.564Z,102186.75
2022-08-28T09:50:35.728Z,102175.69
2022-08-28T09:53:21.800Z,102187.47
2022-08-28T09:56:18.132Z,102169.91
2022-08-28T09:58:51.707Z,102191.28
2022-08-28T10:01:45.468Z,102173.09
2022-08-28T10:04:38.507Z,102203.03
2022-08-28T10:07:16.379Z,102192.28
2022-08-28T10:09:55.521Z,102184.63
2022-08-28T10:12:42.574Z,102196.28
2022-08-28T10:15:19.367Z,102184.75
2022-08-28T10:18:09.341Z,102172.34
2022-08-28T10:20:51.337Z,102187.19
2022-08-28T10:23:31.150Z,102190.94
2022-08-28T10:26:17.445Z,102191.50
2022-08-28T10:29:01.241Z,102163.69
2022-08-28T10:31:41.362Z,102179.97
2022-08-28T10:34:31.927Z,102176.91
2022-08-28T10:37:12.563Z,102175.72
2022-08-28T10:39:53.012Z,102165.31
2022-08-28T10:42:35.991Z,102177.31
2022-08-28T10:45:11.491Z,102174.56
2022-08-28T10:47:46.003Z,102165.25
2022-08-28T10:50:23.131Z,102183.88
2022-08-28T10:52:58.432Z,102190.16
2022-08-28T10:55:34.715Z,102170.56
2022-08-28T10:58:24.602Z,102166.72
2022-08-28T11:00:56.848Z,102195.03
2022-08-28T11:03:35.737Z,102203.44
2022-08-28T11:06:14.724Z,102195.88
2022-08-28T11:08:45.291Z,102182.66
2022-08-28T11:11:15.909Z,102198.09
2022-08-28T11:13:59.853Z,102184.72
2022-08-28T11:16:41.324Z,102196.84
2022-08-28T11:19:43.955Z,102195.50
2022-08-28T11:22:19.816Z,102196.91
2022-08-28T11:25:04.421Z,102182.69
2022-08-28T11:27:39.366Z,102192.81
2022-08-28T11:30:33.466Z,102195.38
2022-08-28T11:33:31.217Z,102199.09
2022-08-28T11:36:00.022Z,102199.81
2022-08-28T11:39:18.864Z,102198.22
2022-08-28T11:42:32.362Z,102191.44
2022-08-28T11:45:01.750Z,102189.19
2022-08-28T11:47:56.216Z,102191.31
2022-08-28T11:50:31.631Z,102185.66
2022-08-28T11:53:39.404Z,102174.53
2022-08-28T11:56:36.947Z,102193.13
2022-08-28T11:59:35.061Z,102195.78
2022-08-28T12:02:55.623Z,102190.22
2022-08-28T12:05:58.047Z,102180.44
2022-08-28T12:09:12.961Z,102187.72
2022-08-28T12:12:02.699Z,102191.22
2022-08-28T12:15:10.608Z,102176.94
2022-08-28T12:17:52.391Z,102181.94
2022-08-28T12:20:49.174Z,102187.41
2022-08-28T12:23:42.011Z,102162.97
2022-08-28T12:26:21.695Z,102174.53
2022-08-28T12:28:55.896Z,102166.22
2022-08-28T12:32:15.120Z,102165.34
2022-08-28T12:34:53.453Z,102179.75
2022-08-28T12:37:51.960Z,102186.69
2022-08-28T12:40:24.857Z,102178.84
2022-08-28T12:42:58.211Z,102163.25
2022-08-28T12:45:38.233Z,102149.41
2022-08-28T12:48:17.866Z,102167.16
2022-08-28T12:50:46.310Z,102152.47
2022-08-28T12:53:18.953Z,102178.53
2022-08-28T12:55:47.947Z,102171.13
2022-08-28T12:58:31.585Z,102165.13
2022-08-28T13:01:07.111Z,102167.53
2022-08-28T13:03:41.917Z,102161.22
2022-08-28T13:06:11.164Z,102167.66
2022-08-28T13:08:39.640Z,102157.31
2022-08-28T13:11:09.151Z,102164.84
2022-08-28T13:13:45.186Z,102158.78
2022-08-28T13:16:34.870Z,102158.38
2022-08-28T13:19:28.426Z,102166.16
2022-08-28T13:22:00.416Z,102164.16
2022-08-28T13:24:40.879Z,102148.19
2022-08-28T13:27:24.814Z,102143.91
2022-08-28T13:30:01.282Z,102153.28
2022-08-28T13:32:34.011Z,102146.44
2022-08-28T13:35:33.737Z,102158.75
2022-08-28T13:38:04.654Z,102150.03
2022-08-28T13:40:58.497Z,102146.38
2022-08-28T13:43:29.676Z,102142.47
2022-08-28T13:45:58.701Z,102147.69
2022-08-28T13:48:29.447Z,102157.53
2022-08-28T13:51:04.365Z,102147.84
2022-08-28T13:53:36.243Z,102143.63
2022-08-28T13:56:05.104Z,102147.81
2022-08-28T13:58:33.445Z,102148.88
2022-08-28T14:01:02.537Z,102138.25
2022-08-28T14:03:38.290Z,102142.75
2022-08-28T14:06:11.934Z,102130.72
2022-08-28T14:08:41.383Z,102134.78
2022-08-28T14:11:12.939Z,102127.16
2022-08-28T14:13:46.913Z,102132.03
2022-08-28T14:16:25.687Z,102131.63
2022-08-28T14:18:55.527Z,102138.06
2022-08-28T14:21:25.245Z,102126.13
2022-08-28T14:23:53.626Z,102124.63
2022-08-28T14:26:21.969Z,102125.56
2022-08-28T14:28:50.527Z,102139.09
2022-08-28T14:31:19.089Z,102138.25
2022-08-28T14:33:47.897Z,102136.28
2022-08-28T14:36:21.000Z,102143.69
2022-08-28T14:38:53.837Z,102120.31
2022-08-28T14:41:23.786Z,102145.31
2022-08-28T14:43:52.287Z,102134.56
2022-08-28T14:46:23.247Z,102122.50
2022-08-28T14:48:52.630Z,102144.38
2022-08-28T14:51:22.457Z,102143.16
2022-08-28T14:53:51.380Z,102128.00
2022-08-28T14:56:21.035Z,102137.50
2022-08-28T14:58:49.711Z,102106.41
2022-08-28T15:01:26.566Z,102104.16
2022-08-28T15:04:11.679Z,102118.31
2022-08-28T15:06:42.505Z,102118.75
2022-08-28T15:09:11.603Z,102103.72
2022-08-28T15:11:42.994Z,102098.88
2022-08-28T15:14:12.205Z,102105.13
2022-08-28T15:16:45.372Z,102119.44
2022-08-28T15:19:15.989Z,102104.34
2022-08-28T15:21:49.506Z,102115.47
2022-08-28T15:24:20.437Z,102112.16
2022-08-28T15:26:49.103Z,102100.72
2022-08-28T15:29:17.892Z,102092.38
2022-08-28T15:31:48.982Z,102098.47
2022-08-28T15:34:20.930Z,102102.94
2022-08-28T15:36:55.307Z,102097.34
2022-08-28T15:39:42.859Z,102091.75
2022-08-28T15:42:11.877Z,102104.81
2022-08-28T15:44:40.550Z,102083.50
2022-08-28T15:47:10.414Z,102098.47
2022-08-28T15:49:46.598Z,102112.38
2022-08-28T15:52:20.951Z,102108.16
2022-08-28T15:54:50.149Z,102104.69
2022-08-28T15:57:18.765Z,102100.97
2022-08-28T15:59:49.709Z,102110.69
2022-08-28T16:02:20.524Z,102112.72
2022-08-28T16:04:49.433Z,102108.13
2022-08-28T16:07:20.915Z,102104.72
2022-08-28T16:09:49.828Z,102087.69
2022-08-28T16:12:18.610Z,102117.47
2022-08-28T16:14:47.062Z,102112.50
2022-08-28T16:17:15.363Z,102120.66
2022-08-28T16:19:44.226Z,102119.59
2022-08-28T16:22:15.906Z,102101.59
2022-08-28T16:24:46.543Z,102100.19
2022-08-28T16:27:15.855Z,102108.00
2022-08-28T16:29:45.266Z,102117.97
2022-08-28T16:32:14.007Z,102115.47
2022-08-28T16:34:44.599Z,102121.63
2022-08-28T16:37:14.309Z,102117.59
2022-08-28T16:39:49.611Z,102102.56
2022-08-28T16:42:17.974Z,102121.38
2022-08-28T16:44:46.277Z,102126.13
2022-08-28T16:47:14.993Z,102125.22
2022-08-28T16:49:43.293Z,102123.47
2022-08-28T16:52:11.726Z,102103.16
2022-08-28T16:54:48.365Z,102111.84
2022-08-28T16:57:19.534Z,102120.47
2022-08-28T16:59:53.000Z,102116.56
2022-08-28T17:02:25.351Z,102108.31
2022-08-28T17:04:55.437Z,102107.78
2022-08-28T17:07:23.746Z,102120.28
2022-08-28T17:09:52.482Z,102100.94
2022-08-28T17:12:22.448Z,102107.91
2022-08-28T17:14:56.648Z,102113.94
2022-08-28T17:17:25.375Z,102119.13
2022-08-28T17:19:53.898Z,102103.34
2022-08-28T17:22:33.376Z,102108.00
2022-08-28T17:25:03.406Z,102124.09
2022-08-28T17:27:33.271Z,102091.50
2022-08-28T17:30:04.665Z,102111.66
2022-08-28T17:32:33.491Z,102109.13
2022-08-28T17:35:05.504Z,102121.13
2022-08-28T17:37:33.976Z,102117.28
2022-08-28T17:40:02.399Z,102128.44
2022-08-28T17:42:32.235Z,102125.16
2022-08-28T17:45:00.693Z,102103.91
2022-08-28T17:47:31.092Z,102114.63
2022-08-28T17:50:00.760Z,102121.84
2022-08-28T17:52:30.141Z,102131.97
2022-08-28T17:54:58.723Z,102106.56
2022-08-28T17:57:30.279Z,102136.59
2022-08-28T18:00:02.068Z,102128.75
2022-08-28T18:02:40.473Z,102122.81
2022-08-28T18:05:11.536Z,102135.19
2022-08-28T18:07:40.067Z,102128.25
2022-08-28T18:10:11.751Z,102109.06
2022-08-28T18:12:41.041Z,102135.50
2022-08-28T18:15:13.610Z,102131.13
2022-08-28T18:17:43.987Z,102130.31
2022-08-28T18:20:13.528Z,102115.41
2022-08-28T18:22:41.833Z,102136.59
2022-08-28T18:25:31.253Z,102105.72
2022-08-28T18:27:59.593Z,102140.28
2022-08-28T18:30:29.785Z,102136.72
2022-08-28T18:32:58.604Z,102151.91
2022-08-28T18:35:31.976Z,102148.50
2022-08-28T18:38:01.664Z,102137.84
2022-08-28T18:40:31.341Z,102142.41
2022-08-28T18:43:00.213Z,102141.53
2022-08-28T18:45:31.457Z,102156.56
2022-08-28T18:48:00.962Z,102150.41
2022-08-28T18:50:30.759Z,102160.22
2022-08-28T18:53:00.940Z,102159.41
2022-08-28T18:55:32.108Z,102159.41
2022-08-28T18:58:02.397Z,102147.97
2022-08-28T19:00:33.079Z,102160.38
2022-08-28T19:03:01.429Z,102168.31
2022-08-28T19:05:30.297Z,102178.94
2022-08-28T19:08:01.766Z,102175.41
2022-08-28T19:10:34.692Z,102171.91
2022-08-28T19:13:04.459Z,102177.22
2022-08-28T19:15:35.676Z,102177.22
2022-08-28T19:18:07.907Z,102175.47
2022-08-28T19:20:36.765Z,102189.63
2022-08-28T19:23:05.045Z,102182.53
2022-08-28T19:25:33.825Z,102188.75
2022-08-28T19:28:03.102Z,102202.88
2022-08-28T19:30:37.448Z,102195.78
2022-08-28T19:33:06.672Z,102202.84
2022-08-28T19:35:34.979Z,102209.09
2022-08-28T19:38:03.661Z,102196.69
2022-08-28T19:40:33.581Z,102192.22
2022-08-28T19:43:02.030Z,102181.63
2022-08-28T19:45:30.297Z,102204.63
2022-08-28T19:48:01.114Z,102193.13
2022-08-28T19:50:29.476Z,102217.91
2022-08-28T19:52:57.926Z,102186.91
2022-08-28T19:55:28.829Z,102219.66
2022-08-28T19:57:57.632Z,102223.22
2022-08-28T20:00:29.679Z,102216.13
2022-08-28T20:03:00.068Z,102200.19
2022-08-28T20:05:28.544Z,102225.84
2022-08-28T20:07:56.879Z,102225.84
2022-08-28T20:10:27.854Z,102233.81
2022-08-28T20:12:56.289Z,102212.53
2022-08-28T20:15:25.029Z,102222.28
2022-08-28T20:17:53.292Z,102208.09
2022-08-28T20:20:27.982Z,102245.28
2022-08-28T20:22:58.135Z,102243.50
2022-08-28T20:25:27.805Z,102247.94
2022-08-28T20:28:01.446Z,102239.97
2022-08-28T20:30:30.542Z,102233.75
2022-08-28T20:33:01.001Z,102249.66
2022-08-28T20:35:30.938Z,102253.19
2022-08-28T20:37:59.597Z,102255.88
2022-08-28T20:40:28.434Z,102253.22
2022-08-28T20:42:57.207Z,102254.06
2022-08-28T20:45:25.884Z,102255.84
2022-08-28T20:47:54.190Z,102262.00
2022-08-28T20:50:22.596Z,102238.06
2022-08-28T20:52:52.226Z,102264.59
2022-08-28T20:55:20.772Z,102265.50
2022-08-28T20:57:49.018Z,102268.16
2022-08-28T21:00:18.400Z,102269.88
2022-08-28T21:02:46.706Z,102270.72
2022-08-28T21:05:16.239Z,102277.84
2022-08-28T21:07:44.562Z,102267.97
2022-08-28T21:10:14.397Z,102287.41
2022-08-28T21:12:42.805Z,102282.06
2022-08-28T21:15:13.478Z,102259.88
2022-08-28T21:17:42.308Z,102258.09
2022-08-28T21:20:14.803Z,102241.28
2022-08-28T21:22:44.201Z,102280.28
2022-08-28T21:25:15.398Z,102275.78
2022-08-28T21:27:44.590Z,102281.16
2022-08-28T21:30:17.305Z,102269.53
2022-08-28T21:32:45.782Z,102263.28
2022-08-28T21:35:15.037Z,102259.75
2022-08-28T21:37:45.068Z,102262.38
2022-08-28T21:40:16.201Z,102273.09
2022-08-28T21:42:44.676Z,102283.53
2022-08-28T21:45:14.371Z,102263.13
2022-08-28T21:47:43.480Z,102280.00
2022-08-28T21:50:12.719Z,102287.03
2022-08-28T21:52:41.355Z,102277.25
2022-08-28T21:55:15.318Z,102285.06
2022-08-28T21:57:44.604Z,102294.81
2022-08-28T22:00:18.342Z,102292.19
2022-08-28T22:02:47.788Z,102287.69
2022-08-28T22:05:17.989Z,102286.72
2022-08-28T22:07:46.450Z,102297.41
2022-08-28T22:10:16.404Z,102299.03
2022-08-28T22:12:44.808Z,102263.53
2022-08-28T22:15:13.444Z,102290.09
2022-08-28T22:17:41.715Z,102284.00
2022-08-28T22:20:11.173Z,102300.66
2022-08-28T22:22:57.148Z,102293.56
2022-08-28T22:25:27.048Z,102298.03
2022-08-28T22:27:55.370Z,102300.63
2022-08-28T22:30:24.150Z,102286.22
2022-08-28T22:32:53.376Z,102308.53
2022-08-28T22:35:21.751Z,102297.06
2022-08-28T22:37:50.349Z,102308.53
2022-08-28T22:40:18.837Z,102284.50
2022-08-28T22:42:50.472Z,102303.06
2022-08-28T22:45:19.354Z,102258.78
2022-08-28T22:47:49.043Z,102280.00
2022-08-28T22:50:18.230Z,102287.94
2022-08-28T22:52:48.352Z,102294.22
2022-08-28T22:55:18.745Z,102301.34
2022-08-28T22:57:49.231Z,102302.97
2022-08-28T23:00:23.891Z,102293.25
2022-08-28T23:02:54.423Z,102294.06
2022-08-28T23:05:24.401Z,102306.28
2022-08-28T23:07:52.722Z,102293.78
2022-08-28T23:10:36.745Z,102310.72
2022-08-28T23:13:14.333Z,102299.84
2022-08-28T23:15:43.657Z,102302.44
2022-08-28T23:18:12.330Z,102297.25
2022-08-28T23:20:40.598Z,102319.47
2022-08-28T23:23:08.944Z,102313.19
2022-08-28T23:25:37.531Z,102320.13
2022-08-28T23:28:06.678Z,102283.69
2022-08-28T23:30:38.799Z,102306.75
2022-08-28T23:33:08.483Z,102301.59
2022-08-28T23:35:37.646Z,102311.94
2022-08-28T23:38:06.493Z,102293.25
2022-08-28T23:40:35.014Z,102300.53
2022-08-28T23:43:04.130Z,102262.41
2022-08-28T23:45:32.626Z,102294.22
2022-08-28T23:48:03.038Z,102270.16
2022-08-28T23:50:33.928Z,102269.38
2022-08-28T23:53:03.201Z,102272.75
2022-08-28T23:55:33.355Z,102296.78
2022-08-28T23:58:01.885Z,102280.09
